This is the latest recevied weather packets stored in our database for station/object KD2ZLA. If no packets are shown the sender has not sent any weather packets the latest 10 day(s).
| Time | Temp. | Humidity | Pressure | Rain* | Wind** | Luminosity | Snow |
|---|---|---|---|---|---|---|---|
| 1777982322 | 17.22° C | 69% | 1000.9 hPa | 0 mm | - | 301 W/m² | - |
| 1777982020 | 16.67° C | 71% | 1001.1 hPa | 0 mm | - | 225 W/m² | - |
| 1777981718 | 16.11° C | 72% | 1001.1 hPa | 0 mm | - | 188 W/m² | - |
| 1777981414 | 16.11° C | 73% | 1001.2 hPa | 0 mm | - | 87 W/m² | - |
| 1777981110 | 16.11° C | 74% | 1001.2 hPa | 0 mm | - | 104 W/m² | - |
| 1777980807 | 15.56° C | 76% | 1001.1 hPa | 0 mm | - | 104 W/m² | - |
| 1777980503 | 15.56° C | 77% | 1001 hPa | 0 mm | - | 70 W/m² | - |
| 1777980200 | 15.56° C | 78% | 1000.9 hPa | 0.51 mm | - | 36 W/m² | - |
| 1777979896 | 15° C | 80% | 1000.9 hPa | 1.27 mm | - | 53 W/m² | - |
| 1777979592 | 15° C | 80% | 1001.1 hPa | 0.51 mm | - | 47 W/m² | - |
| 1777979288 | 15.56° C | 77% | 1001 hPa | 0 mm | - | 54 W/m² | - |
| 1777978986 | 15.56° C | 77% | 1000.9 hPa | 0 mm | - | 59 W/m² | - |
| 1777978682 | 15.56° C | 77% | 1001.1 hPa | 0 mm | - | 36 W/m² | - |
| 1777978377 | 15.56° C | 76% | 1001.2 hPa | 0.51 mm | - | 24 W/m² | - |
| 1777978074 | 15.56° C | 76% | 1001 hPa | 0.51 mm | - | 10 W/m² | - |
| 1777977772 | 16.11° C | 72% | 1000.8 hPa | 0 mm | - | 9 W/m² | - |
| 1777977468 | 16.11° C | 69% | 1001.3 hPa | 0 mm | - | 8 W/m² | - |
| 1777977166 | 16.67° C | 69% | 1001.2 hPa | 0 mm | - | 7 W/m² | - |
| 1777976863 | 16.11° C | 69% | 1001.1 hPa | 0 mm | - | 4 W/m² | - |
| 1777976561 | 16.67° C | 68% | 1001 hPa | 0.51 mm | - | 3 W/m² | - |
| 1777976259 | 16.67° C | 67% | 1000.9 hPa | 0.51 mm | - | 3 W/m² | - |
| 1777975955 | 16.67° C | 63% | 1000.8 hPa | 0 mm | - | 3 W/m² | - |
| 1777975652 | 16.67° C | 62% | 1000.9 hPa | 0 mm | - | 3 W/m² | - |
| 1777975349 | 16.67° C | 62% | 1000.9 hPa | 0 mm | - | 4 W/m² | - |
| 1777975044 | 16.11° C | 62% | 1000.8 hPa | 0 mm | - | 3 W/m² | - |
* Rain latest hour (hover to see other rain measurements)
** Current wind speed in m/s (hover to see current wind gust speed)